createdAt,value
2023-05-09T00:01:12.977Z,2.00
2023-05-09T00:03:40.770Z,3.78
2023-05-09T00:06:07.706Z,3.80
2023-05-09T00:08:36.119Z,2.75
2023-05-09T00:11:03.081Z,2.63
2023-05-09T00:13:30.266Z,4.40
2023-05-09T00:15:59.720Z,2.50
2023-05-09T00:18:28.530Z,2.40
2023-05-09T00:20:55.437Z,3.00
2023-05-09T00:23:23.134Z,2.53
2023-05-09T00:25:50.025Z,2.00
2023-05-09T00:28:17.295Z,1.92
2023-05-09T00:30:44.713Z,1.60
2023-05-09T00:33:12.366Z,2.33
2023-05-09T00:35:39.352Z,2.75
2023-05-09T00:38:07.437Z,2.40
2023-05-09T00:40:34.306Z,1.85
2023-05-09T00:43:02.708Z,2.78
2023-05-09T00:45:29.661Z,2.65
2023-05-09T00:47:57.622Z,2.83
2023-05-09T00:50:24.992Z,2.77
2023-05-09T00:52:52.461Z,3.07
2023-05-09T00:55:19.873Z,2.90
2023-05-09T00:57:47.164Z,1.85
2023-05-09T01:00:14.512Z,2.37
2023-05-09T01:02:48.137Z,2.77
2023-05-09T01:05:15.601Z,3.05
2023-05-09T01:08:03.647Z,1.87
2023-05-09T01:10:42.785Z,2.42
2023-05-09T01:13:29.896Z,2.33
2023-05-09T01:16:06.327Z,2.00
2023-05-09T01:18:40.705Z,2.40
2023-05-09T01:21:13.388Z,3.57
2023-05-09T01:23:44.197Z,3.30
2023-05-09T01:26:48.638Z,2.93
2023-05-09T01:29:28.052Z,3.30
2023-05-09T01:31:56.679Z,3.50
2023-05-09T01:34:26.879Z,3.53
2023-05-09T01:36:56.482Z,3.37
2023-05-09T01:39:25.051Z,5.70
2023-05-09T01:41:53.819Z,4.27
2023-05-09T01:44:22.674Z,4.17
2023-05-09T01:46:50.848Z,3.77
2023-05-09T01:49:19.205Z,3.20
2023-05-09T01:51:47.775Z,3.30
2023-05-09T01:54:15.366Z,4.83
2023-05-09T01:56:43.175Z,3.93
2023-05-09T01:59:16.020Z,4.33
2023-05-09T02:01:44.868Z,3.03
2023-05-09T02:04:13.335Z,3.90
2023-05-09T02:06:40.818Z,3.50
2023-05-09T02:09:08.488Z,2.80
2023-05-09T02:11:35.463Z,5.87
2023-05-09T02:14:02.928Z,4.00
2023-05-09T02:16:30.177Z,4.03
2023-05-09T02:18:57.398Z,4.10
2023-05-09T02:21:24.301Z,3.60
2023-05-09T02:23:51.613Z,4.13
2023-05-09T02:26:18.626Z,3.17
2023-05-09T02:28:47.144Z,3.20
2023-05-09T02:31:14.556Z,4.97
2023-05-09T02:33:43.066Z,3.70
2023-05-09T02:36:10.424Z,3.40
2023-05-09T02:38:38.034Z,4.00
2023-05-09T02:41:05.095Z,3.57
2023-05-09T02:43:32.287Z,4.00
2023-05-09T02:45:59.275Z,3.50
2023-05-09T02:48:27.565Z,3.17
2023-05-09T02:50:54.520Z,2.80
2023-05-09T02:53:22.009Z,3.67
2023-05-09T02:55:49.005Z,3.08
2023-05-09T02:58:16.504Z,3.40
2023-05-09T03:00:44.753Z,3.33
2023-05-09T03:03:13.738Z,3.83
2023-05-09T03:05:41.048Z,3.43
2023-05-09T03:08:08.262Z,3.60
2023-05-09T03:10:35.240Z,3.50
2023-05-09T03:13:03.148Z,3.37
2023-05-09T03:15:30.887Z,3.33
2023-05-09T03:18:00.257Z,3.60
2023-05-09T03:20:27.794Z,3.47
2023-05-09T03:22:55.299Z,3.00
2023-05-09T03:25:22.479Z,3.20
2023-05-09T03:27:49.773Z,3.07
2023-05-09T03:30:17.282Z,3.60
2023-05-09T03:32:46.975Z,3.40
2023-05-09T03:35:14.503Z,3.63
2023-05-09T03:37:42.374Z,3.03
2023-05-09T03:40:10.451Z,3.53
2023-05-09T03:42:45.544Z,3.30
2023-05-09T03:45:12.709Z,3.07
2023-05-09T03:47:41.408Z,3.27
2023-05-09T03:50:09.147Z,3.37
2023-05-09T03:52:37.835Z,2.57
2023-05-09T03:55:07.305Z,3.00
2023-05-09T03:57:36.849Z,3.80
2023-05-09T04:00:06.180Z,3.30
2023-05-09T04:02:42.135Z,3.33
2023-05-09T04:05:16.166Z,3.37
2023-05-09T04:07:43.914Z,3.97
2023-05-09T04:10:11.896Z,4.87
2023-05-09T04:12:39.361Z,4.80
2023-05-09T04:15:07.154Z,4.25
2023-05-09T04:17:36.645Z,3.80
2023-05-09T04:20:03.868Z,3.50
2023-05-09T04:22:31.185Z,3.10
2023-05-09T04:24:58.119Z,3.00
2023-05-09T04:27:25.794Z,2.73
2023-05-09T04:29:53.853Z,3.10
2023-05-09T04:32:23.312Z,3.00
2023-05-09T04:34:50.985Z,3.10
2023-05-09T04:37:22.982Z,2.92
2023-05-09T04:39:50.252Z,3.30
2023-05-09T04:42:24.317Z,2.45
2023-05-09T04:44:51.877Z,2.42
2023-05-09T04:47:21.324Z,2.65
2023-05-09T04:49:48.225Z,2.38
2023-05-09T04:52:15.399Z,2.60
2023-05-09T04:54:43.202Z,2.85
2023-05-09T04:57:17.828Z,3.28
2023-05-09T04:59:48.844Z,2.45
2023-05-09T05:02:16.965Z,3.10
2023-05-09T05:04:44.009Z,2.03
2023-05-09T05:07:11.468Z,2.42
2023-05-09T05:09:39.030Z,2.17
2023-05-09T05:12:09.377Z,2.67
2023-05-09T05:14:37.813Z,3.80
2023-05-09T05:17:08.413Z,4.25
2023-05-09T05:19:35.703Z,4.32
2023-05-09T05:22:04.364Z,3.13
2023-05-09T05:24:32.466Z,3.22
2023-05-09T05:26:59.760Z,2.90
2023-05-09T05:29:26.773Z,2.22
2023-05-09T05:31:54.050Z,1.80
2023-05-09T05:34:21.481Z,2.60
2023-05-09T05:36:49.010Z,2.42
2023-05-09T05:39:16.190Z,1.92
2023-05-09T05:41:43.392Z,1.55
2023-05-09T05:44:11.197Z,1.30
2023-05-09T05:46:39.239Z,1.70
2023-05-09T05:49:06.477Z,2.35
2023-05-09T05:51:34.819Z,1.90
2023-05-09T05:54:02.950Z,2.33
2023-05-09T05:56:30.801Z,1.50
2023-05-09T05:58:58.200Z,3.92
2023-05-09T06:01:25.712Z,1.27
2023-05-09T06:03:54.998Z,1.25
2023-05-09T06:06:26.719Z,1.52
2023-05-09T06:08:55.648Z,1.48
2023-05-09T06:11:23.577Z,2.58
2023-05-09T06:13:50.625Z,2.13
2023-05-09T06:16:20.110Z,2.65
2023-05-09T06:18:53.354Z,1.23
2023-05-09T06:21:22.272Z,1.45
2023-05-09T06:24:05.058Z,1.77
2023-05-09T06:26:36.993Z,1.33
2023-05-09T06:29:05.934Z,1.75
2023-05-09T06:31:38.364Z,2.30
2023-05-09T06:34:06.177Z,1.90
2023-05-09T06:36:34.592Z,1.30
2023-05-09T06:39:01.625Z,1.80
2023-05-09T06:41:28.789Z,1.73
2023-05-09T06:43:56.225Z,3.05
2023-05-09T06:46:23.543Z,2.22
2023-05-09T06:48:50.593Z,1.25
2023-05-09T06:51:17.767Z,1.92
2023-05-09T06:53:44.627Z,1.85
2023-05-09T06:56:12.193Z,2.55
2023-05-09T06:58:39.089Z,1.65
2023-05-09T07:01:06.306Z,1.23
2023-05-09T07:03:33.213Z,1.20
2023-05-09T07:06:00.408Z,1.33
2023-05-09T07:08:27.445Z,1.52
2023-05-09T07:10:54.949Z,1.38
2023-05-09T07:13:22.034Z,1.15
2023-05-09T07:15:49.365Z,1.08
2023-05-09T07:18:16.337Z,1.63
2023-05-09T07:20:43.536Z,1.58
2023-05-09T07:23:10.503Z,1.13
2023-05-09T07:25:38.049Z,1.23
2023-05-09T07:28:05.969Z,1.30
2023-05-09T07:30:33.081Z,2.08
2023-05-09T07:33:01.463Z,1.77
2023-05-09T07:35:28.972Z,1.42
2023-05-09T07:37:56.092Z,1.40
2023-05-09T07:40:23.287Z,0.90
2023-05-09T07:42:51.609Z,1.00
2023-05-09T07:45:25.257Z,0.93
2023-05-09T07:47:52.216Z,0.90
2023-05-09T07:50:19.430Z,1.00
2023-05-09T07:52:46.551Z,0.85
2023-05-09T07:55:14.191Z,0.98
2023-05-09T07:57:41.298Z,0.90
2023-05-09T08:00:09.056Z,0.88
2023-05-09T08:02:42.047Z,0.70
2023-05-09T08:05:11.591Z,0.98
2023-05-09T08:07:38.749Z,0.90
2023-05-09T08:10:06.874Z,0.82
2023-05-09T08:12:33.760Z,0.90
2023-05-09T08:15:01.102Z,0.75
2023-05-09T08:17:27.967Z,0.90
2023-05-09T08:19:55.208Z,0.80
2023-05-09T08:22:22.240Z,0.85
2023-05-09T08:24:49.441Z,0.90
2023-05-09T08:27:16.509Z,1.98
2023-05-09T08:29:43.803Z,0.88
2023-05-09T08:32:10.653Z,0.73
2023-05-09T08:34:37.921Z,1.00
2023-05-09T08:37:04.957Z,1.35
2023-05-09T08:39:34.914Z,1.20
2023-05-09T08:42:02.588Z,0.85
2023-05-09T08:44:30.609Z,0.90
2023-05-09T08:47:02.458Z,1.20
2023-05-09T08:49:29.582Z,0.70
2023-05-09T08:51:57.366Z,0.90
2023-05-09T08:54:24.939Z,1.00
2023-05-09T08:56:52.455Z,0.93
2023-05-09T08:59:19.731Z,0.75
2023-05-09T09:01:47.633Z,0.80
2023-05-09T09:04:14.797Z,1.20
2023-05-09T09:06:42.801Z,0.95
2023-05-09T09:09:10.487Z,0.70
2023-05-09T09:11:39.009Z,0.88
2023-05-09T09:14:15.362Z,1.00
2023-05-09T09:16:44.962Z,0.93
2023-05-09T09:19:13.496Z,1.30
2023-05-09T09:21:42.776Z,1.10
2023-05-09T09:24:13.025Z,4.45
2023-05-09T09:26:46.140Z,2.42
2023-05-09T09:29:13.419Z,0.80
2023-05-09T09:31:44.965Z,0.80
2023-05-09T09:34:13.209Z,1.27
2023-05-09T09:36:40.653Z,7.30
2023-05-09T09:39:09.130Z,6.85
2023-05-09T09:41:40.309Z,7.70
2023-05-09T09:44:15.504Z,3.80
2023-05-09T09:46:53.605Z,1.42
2023-05-09T09:49:25.475Z,1.73
2023-05-09T09:51:54.138Z,1.80
2023-05-09T09:54:21.584Z,3.53
2023-05-09T09:56:51.891Z,7.18
2023-05-09T09:59:25.061Z,5.25
2023-05-09T10:02:07.033Z,4.68
2023-05-09T10:04:37.558Z,2.60
2023-05-09T10:07:12.809Z,1.27
2023-05-09T10:09:42.460Z,1.20
2023-05-09T10:12:09.644Z,1.25
2023-05-09T10:14:38.428Z,3.47
2023-05-09T10:17:05.989Z,4.35
2023-05-09T10:19:33.446Z,1.20
2023-05-09T10:22:05.862Z,0.98
2023-05-09T10:24:32.784Z,0.75
2023-05-09T10:27:06.375Z,0.90
2023-05-09T10:29:36.514Z,0.68
2023-05-09T10:32:26.919Z,1.00
2023-05-09T10:34:58.521Z,0.85
2023-05-09T10:37:26.117Z,0.88
2023-05-09T10:39:54.626Z,1.10
2023-05-09T10:42:23.955Z,1.00
2023-05-09T10:44:53.562Z,0.80
2023-05-09T10:47:21.686Z,1.05
2023-05-09T10:49:49.514Z,0.93
2023-05-09T10:52:17.022Z,0.73
2023-05-09T10:54:43.960Z,1.08
2023-05-09T10:57:11.239Z,1.00
2023-05-09T10:59:42.520Z,1.15
2023-05-09T11:02:13.818Z,1.05
2023-05-09T11:04:41.137Z,0.70
2023-05-09T11:07:27.423Z,0.82
2023-05-09T11:10:14.633Z,1.23
2023-05-09T11:12:58.758Z,1.00
2023-05-09T11:15:27.419Z,1.10
2023-05-09T11:18:08.645Z,0.90
2023-05-09T11:20:36.799Z,0.90
2023-05-09T11:23:05.049Z,0.98
2023-05-09T11:25:31.933Z,0.85
2023-05-09T11:28:01.693Z,0.80
2023-05-09T11:30:42.685Z,0.80
2023-05-09T11:33:27.654Z,1.05
2023-05-09T11:36:30.162Z,0.90
2023-05-09T11:39:08.604Z,0.95
2023-05-09T11:41:44.114Z,0.85
2023-05-09T11:44:20.124Z,0.90
2023-05-09T11:46:48.497Z,0.98
2023-05-09T11:49:16.997Z,1.65
2023-05-09T11:51:43.981Z,1.02
2023-05-09T11:54:12.335Z,0.90
2023-05-09T11:56:41.560Z,0.90
2023-05-09T11:59:10.514Z,1.63
2023-05-09T12:01:37.675Z,1.20
2023-05-09T12:04:07.045Z,1.00
2023-05-09T12:06:34.001Z,0.90
2023-05-09T12:09:01.154Z,0.93
2023-05-09T12:11:32.394Z,1.00
2023-05-09T12:13:59.764Z,0.93
2023-05-09T12:16:26.828Z,0.90
2023-05-09T12:18:54.863Z,0.85
2023-05-09T12:21:22.409Z,1.10
2023-05-09T12:23:52.561Z,0.80
2023-05-09T12:26:23.097Z,1.10
2023-05-09T12:28:50.823Z,1.20
2023-05-09T12:31:17.935Z,0.80
2023-05-09T12:33:45.245Z,0.90
2023-05-09T12:36:13.877Z,0.82
2023-05-09T12:38:42.559Z,0.90
2023-05-09T12:41:29.601Z,0.80
2023-05-09T12:43:57.914Z,1.00
2023-05-09T12:46:25.161Z,1.35
2023-05-09T12:48:52.723Z,1.00
2023-05-09T12:51:21.392Z,1.10
2023-05-09T12:53:48.666Z,0.80
2023-05-09T12:56:17.328Z,1.20
2023-05-09T12:58:52.891Z,1.00
2023-05-09T13:01:27.904Z,0.82
2023-05-09T13:04:05.953Z,0.80
2023-05-09T13:06:33.517Z,0.77
2023-05-09T13:09:05.926Z,0.80
2023-05-09T13:11:32.958Z,0.70
2023-05-09T13:14:02.304Z,0.98
2023-05-09T13:16:29.392Z,0.90
2023-05-09T13:18:56.743Z,0.90
2023-05-09T13:21:23.659Z,0.70
2023-05-09T13:23:51.279Z,0.88
2023-05-09T13:26:18.259Z,0.90
2023-05-09T13:28:45.788Z,0.88
2023-05-09T13:31:12.801Z,1.00
2023-05-09T13:33:40.133Z,0.60
2023-05-09T13:36:07.517Z,0.60
2023-05-09T13:38:38.755Z,0.52
2023-05-09T13:41:06.813Z,0.90
2023-05-09T13:43:34.457Z,1.00
2023-05-09T13:46:01.426Z,1.05
2023-05-09T13:48:29.190Z,0.82
2023-05-09T13:50:57.729Z,0.70
2023-05-09T13:53:24.972Z,0.80
2023-05-09T13:55:52.107Z,0.80
2023-05-09T13:58:19.354Z,0.88
2023-05-09T14:00:46.399Z,0.75
2023-05-09T14:03:13.830Z,0.70
2023-05-09T14:05:40.847Z,1.17
2023-05-09T14:08:08.148Z,0.90
2023-05-09T14:10:35.100Z,0.93
2023-05-09T14:13:02.324Z,0.57
2023-05-09T14:15:29.960Z,0.70
2023-05-09T14:17:57.522Z,0.90
2023-05-09T14:20:24.445Z,0.80
2023-05-09T14:22:52.056Z,0.60
2023-05-09T14:25:19.038Z,0.77
2023-05-09T14:27:46.193Z,0.80
2023-05-09T14:30:13.737Z,0.95
2023-05-09T14:32:41.149Z,0.70
2023-05-09T14:35:08.558Z,0.80
2023-05-09T14:37:36.594Z,0.90
2023-05-09T14:40:05.696Z,0.88
2023-05-09T14:42:33.191Z,0.95
2023-05-09T14:45:00.060Z,0.90
2023-05-09T14:47:27.305Z,1.05
2023-05-09T14:49:54.305Z,0.73
2023-05-09T14:52:21.647Z,0.75
2023-05-09T14:54:48.605Z,0.70
2023-05-09T14:57:16.065Z,1.05
2023-05-09T14:59:42.936Z,0.98
2023-05-09T15:02:10.198Z,0.90
2023-05-09T15:04:37.096Z,1.00
2023-05-09T15:07:06.042Z,0.90
2023-05-09T15:09:32.988Z,0.90
2023-05-09T15:12:00.268Z,0.80
2023-05-09T15:14:27.250Z,1.00
2023-05-09T15:16:55.410Z,0.75
2023-05-09T15:19:22.626Z,0.80
2023-05-09T15:21:49.828Z,0.90
2023-05-09T15:24:17.141Z,1.02
2023-05-09T15:26:44.332Z,0.88
2023-05-09T15:29:11.253Z,1.00
2023-05-09T15:31:38.587Z,0.90
2023-05-09T15:34:05.474Z,0.88
2023-05-09T15:36:34.047Z,1.00
2023-05-09T15:39:01.271Z,0.77
2023-05-09T15:41:28.753Z,0.80
2023-05-09T15:43:55.781Z,0.65
2023-05-09T15:46:23.285Z,0.70
2023-05-09T15:48:50.426Z,0.70
2023-05-09T15:51:17.648Z,0.77
2023-05-09T15:53:44.528Z,1.00
2023-05-09T15:56:11.886Z,0.80
2023-05-09T15:58:40.318Z,0.82
2023-05-09T16:01:08.273Z,0.70
2023-05-09T16:03:35.754Z,0.93
2023-05-09T16:06:03.647Z,0.98
2023-05-09T16:08:30.605Z,0.90
2023-05-09T16:11:00.839Z,0.90
2023-05-09T16:13:27.891Z,0.82
2023-05-09T16:15:55.588Z,0.75
2023-05-09T16:18:22.581Z,0.90
2023-05-09T16:20:50.544Z,0.90
2023-05-09T16:23:17.601Z,0.95
2023-05-09T16:25:45.055Z,0.90
2023-05-09T16:28:15.677Z,0.70
2023-05-09T16:30:42.962Z,0.90
2023-05-09T16:33:09.909Z,1.00
2023-05-09T16:35:37.208Z,0.90
2023-05-09T16:38:04.035Z,1.23
2023-05-09T16:40:32.060Z,1.55
2023-05-09T16:42:59.007Z,1.48
2023-05-09T16:45:26.615Z,2.38
2023-05-09T16:47:55.566Z,1.42
2023-05-09T16:50:23.767Z,1.23
2023-05-09T16:52:50.645Z,0.90
2023-05-09T16:55:17.937Z,2.63
2023-05-09T16:57:44.854Z,0.77
2023-05-09T17:00:13.015Z,1.38
2023-05-09T17:02:39.983Z,1.00
2023-05-09T17:05:07.778Z,1.20
2023-05-09T17:07:34.723Z,0.77
2023-05-09T17:10:02.111Z,1.67
2023-05-09T17:12:29.147Z,11.27
2023-05-09T17:14:56.443Z,1.13
2023-05-09T17:17:23.382Z,3.10
2023-05-09T17:19:50.719Z,1.50
2023-05-09T17:22:17.636Z,0.80
2023-05-09T17:24:44.812Z,0.88
2023-05-09T17:27:11.770Z,1.10
2023-05-09T17:29:39.058Z,1.00
2023-05-09T17:32:06.794Z,1.05
2023-05-09T17:34:34.020Z,0.90
2023-05-09T17:37:02.538Z,0.90
2023-05-09T17:39:30.062Z,1.48
2023-05-09T17:41:57.325Z,1.50
2023-05-09T17:44:24.785Z,1.98
2023-05-09T17:46:51.969Z,4.68
2023-05-09T17:49:19.180Z,4.60
2023-05-09T17:51:46.170Z,3.55
2023-05-09T17:54:13.464Z,10.60
2023-05-09T17:56:40.747Z,11.15
2023-05-09T17:59:08.308Z,7.03
2023-05-09T18:01:36.147Z,7.38
2023-05-09T18:04:03.835Z,6.15
2023-05-09T18:06:31.324Z,5.72
2023-05-09T18:08:58.472Z,5.47
2023-05-09T18:11:26.186Z,2.97
2023-05-09T18:13:53.510Z,2.70
2023-05-09T18:16:20.588Z,5.55
2023-05-09T18:18:47.887Z,8.63
2023-05-09T18:21:14.846Z,7.57
2023-05-09T18:23:42.067Z,9.02
2023-05-09T18:26:08.952Z,7.97
2023-05-09T18:28:41.827Z,11.57
2023-05-09T18:31:12.977Z,13.43
2023-05-09T18:33:40.322Z,10.63
2023-05-09T18:36:09.942Z,12.88
2023-05-09T18:38:41.115Z,9.32
2023-05-09T18:41:09.261Z,8.10
2023-05-09T18:43:45.810Z,4.78
2023-05-09T18:46:17.260Z,2.33
2023-05-09T18:48:45.831Z,14.35
2023-05-09T18:51:12.833Z,37.33
2023-05-09T18:53:40.603Z,106.50
2023-05-09T18:56:07.754Z,51.83
2023-05-09T18:58:35.872Z,57.35
2023-05-09T19:01:02.991Z,68.05
2023-05-09T19:03:30.508Z,48.92
2023-05-09T19:05:58.743Z,28.08
2023-05-09T19:08:26.372Z,15.75
2023-05-09T19:10:53.282Z,7.03
2023-05-09T19:13:20.781Z,7.20
2023-05-09T19:15:47.848Z,3.00
2023-05-09T19:18:15.134Z,13.10
2023-05-09T19:20:47.117Z,50.45
2023-05-09T19:23:14.310Z,15.95
2023-05-09T19:25:41.241Z,25.33
2023-05-09T19:28:08.461Z,5.75
2023-05-09T19:30:35.976Z,24.73
2023-05-09T19:33:03.529Z,24.58
2023-05-09T19:35:30.579Z,10.30
2023-05-09T19:37:58.253Z,33.67
2023-05-09T19:40:25.401Z,10.98
2023-05-09T19:42:52.726Z,19.50
2023-05-09T19:45:19.861Z,12.05
2023-05-09T19:47:47.402Z,9.00
2023-05-09T19:50:14.541Z,6.03
2023-05-09T19:52:42.084Z,3.25
2023-05-09T19:55:09.417Z,5.85
2023-05-09T19:57:36.852Z,15.38
2023-05-09T20:00:06.933Z,50.70
2023-05-09T20:02:34.632Z,5.57
2023-05-09T20:05:01.790Z,7.95
2023-05-09T20:07:33.309Z,9.63
2023-05-09T20:10:01.959Z,11.48
2023-05-09T20:12:30.200Z,4.68
2023-05-09T20:14:57.537Z,3.20
2023-05-09T20:17:24.718Z,2.70
2023-05-09T20:19:51.784Z,2.13
2023-05-09T20:22:19.227Z,3.13
2023-05-09T20:24:46.333Z,1.85
2023-05-09T20:27:13.841Z,3.45
2023-05-09T20:29:40.861Z,2.08
2023-05-09T20:32:08.162Z,1.75
2023-05-09T20:34:35.116Z,1.70
2023-05-09T20:37:02.353Z,2.42
2023-05-09T20:39:29.391Z,2.80
2023-05-09T20:41:58.764Z,2.60
2023-05-09T20:44:25.764Z,2.58
2023-05-09T20:46:53.227Z,2.22
2023-05-09T20:49:20.052Z,3.00
2023-05-09T20:51:47.575Z,4.00
2023-05-09T20:54:14.601Z,2.72
2023-05-09T20:56:42.047Z,5.50
2023-05-09T20:59:08.924Z,2.10
2023-05-09T21:01:36.875Z,2.63
2023-05-09T21:04:05.647Z,4.63
2023-05-09T21:06:33.271Z,2.65
2023-05-09T21:09:04.040Z,2.70
2023-05-09T21:11:31.270Z,2.33
2023-05-09T21:13:58.287Z,3.42
2023-05-09T21:16:25.596Z,3.33
2023-05-09T21:18:52.628Z,2.05
2023-05-09T21:21:22.394Z,3.33
2023-05-09T21:23:49.364Z,2.22
2023-05-09T21:26:19.649Z,1.40
2023-05-09T21:28:47.142Z,1.33
2023-05-09T21:31:17.169Z,1.42
2023-05-09T21:33:45.569Z,1.75
2023-05-09T21:36:12.855Z,1.83
2023-05-09T21:38:39.738Z,1.50
2023-05-09T21:41:07.147Z,1.98
2023-05-09T21:43:34.033Z,1.90
2023-05-09T21:46:01.294Z,2.10
2023-05-09T21:48:28.358Z,1.58
2023-05-09T21:50:55.607Z,1.40
2023-05-09T21:53:23.427Z,1.45
2023-05-09T21:55:51.044Z,2.90
2023-05-09T21:58:17.865Z,2.42
2023-05-09T22:00:45.055Z,1.80
2023-05-09T22:03:12.023Z,1.73
2023-05-09T22:05:39.495Z,2.25
2023-05-09T22:08:06.462Z,1.98
2023-05-09T22:10:34.134Z,2.47
2023-05-09T22:13:01.110Z,2.33
2023-05-09T22:15:28.462Z,2.90
2023-05-09T22:17:55.431Z,1.73
2023-05-09T22:20:22.732Z,1.80
2023-05-09T22:22:49.687Z,1.55
2023-05-09T22:25:16.900Z,1.40
2023-05-09T22:27:43.752Z,2.60
2023-05-09T22:30:12.453Z,3.03
2023-05-09T22:32:39.817Z,5.00
2023-05-09T22:35:07.434Z,3.58
2023-05-09T22:37:34.230Z,6.13
2023-05-09T22:40:01.503Z,1.75
2023-05-09T22:42:29.436Z,1.52
2023-05-09T22:44:57.412Z,3.28
2023-05-09T22:47:24.279Z,2.50
2023-05-09T22:49:51.495Z,2.15
2023-05-09T22:52:18.490Z,2.05
2023-05-09T22:54:45.846Z,1.95
2023-05-09T22:57:12.797Z,1.58
2023-05-09T22:59:40.118Z,1.80
2023-05-09T23:02:07.031Z,1.65
2023-05-09T23:04:34.779Z,1.40
2023-05-09T23:07:01.810Z,2.20
2023-05-09T23:09:29.140Z,6.40
2023-05-09T23:11:56.097Z,2.10
2023-05-09T23:14:23.297Z,3.25
2023-05-09T23:16:50.801Z,2.88
2023-05-09T23:19:18.047Z,3.88
2023-05-09T23:21:45.030Z,3.15
2023-05-09T23:24:12.198Z,2.90
2023-05-09T23:26:39.190Z,3.28
2023-05-09T23:29:06.622Z,4.13
2023-05-09T23:31:33.516Z,1.83
2023-05-09T23:34:00.665Z,2.03
2023-05-09T23:36:28.202Z,7.50
2023-05-09T23:38:55.748Z,14.38
2023-05-09T23:41:22.696Z,2.60
2023-05-09T23:43:49.852Z,6.00
2023-05-09T23:46:16.913Z,3.88
2023-05-09T23:48:44.394Z,4.28
2023-05-09T23:51:11.353Z,4.35
2023-05-09T23:53:38.793Z,2.88
2023-05-09T23:56:06.441Z,1.83
2023-05-09T23:58:33.646Z,2.20
